Terminal Aerodrome Forecast
Issued by NWS

Home | Current Version | Previous Version | Text Only | Print | Product List | Glossary On
Versions: 1 2 3 4 5 6 7 8 9 10 11 12 13
000
FTUS43 KGRB 261120
TAFATW
TAF
KATW 261120Z 2612/2712 06008KT P6SM BKN080
     FM261400 11009KT P6SM OVC050
      TEMPO 2614/2618 5SM TSRA BKN025CB
     FM261800 22009G16KT P6SM OVC040
     FM270300 VRB03KT P6SM RA OVC023
     FM270600 32008KT 6SM RA BR OVC012
     FM270900 30008KT 3SM RA BR OVC009=

USA.gov is the U.S. government's official web portal to all federal, state and local government web resources and services.